Time;durP1;ratioP1;P1;durP2;ratioP2;P2;SDS_P1;SDS_P2;PMS_P1;PMS_P2;Temp;Humidity;BMP_temperature;BMP_pressure;BME280_temperature;BME280_humidity;BME280_pressure;Samples;Min_cycle;Max_cycle;Signal;HPM_P1;HPM_P2
2021/09/27 00:02:22;;;;;;;4.80;4.30;;;;;;;16.27;100.00;96731.94;5073638;28;20288;-79
2021/09/27 00:04:49;;;;;;;6.73;4.60;;;;;;;16.32;100.00;96719.78;5073933;28;20275;-79
2021/09/27 00:07:17;;;;;;;4.80;4.40;;;;;;;16.54;100.00;96714.53;5073526;28;20200;-79
2021/09/27 00:09:44;;;;;;;6.03;5.30;;;;;;;16.44;100.00;96712.16;5073389;28;20224;-78
2021/09/27 00:12:11;;;;;;;4.07;3.77;;;;;;;16.48;100.00;96707.31;5073810;28;20200;-79
2021/09/27 00:14:40;;;;;;;6.67;4.73;;;;;;;16.34;100.00;96703.66;5073369;28;20204;-78
2021/09/27 00:17:09;;;;;;;4.20;3.90;;;;;;;16.37;100.00;96700.66;5093711;28;20204;-79
2021/09/27 00:19:38;;;;;;;4.60;4.20;;;;;;;16.34;100.00;96695.72;5093593;28;20204;-78
2021/09/27 00:22:08;;;;;;;5.57;4.70;;;;;;;16.53;100.00;96702.28;5092689;28;20203;-79
2021/09/27 00:24:36;;;;;;;4.63;4.23;;;;;;;16.41;100.00;96697.44;5091774;28;20291;-78
2021/09/27 00:27:04;;;;;;;5.07;4.57;;;;;;;16.22;100.00;96695.34;5093776;28;20286;-79
2021/09/27 00:29:31;;;;;;;4.43;4.07;;;;;;;16.47;100.00;96690.56;5093456;28;20579;-78
2021/09/27 00:31:58;;;;;;;4.27;3.87;;;;;;;16.16;100.00;96688.13;5093525;28;20191;-79
2021/09/27 00:34:26;;;;;;;5.07;4.67;;;;;;;16.14;100.00;96685.66;5093160;28;20688;-78
2021/09/27 00:36:54;;;;;;;8.10;5.30;;;;;;;16.07;100.00;96678.59;5093667;28;20197;-78
2021/09/27 00:39:22;;;;;;;5.50;5.00;;;;;;;16.02;100.00;96681.00;5093038;28;20210;-79
2021/09/27 00:41:49;;;;;;;4.90;4.50;;;;;;;16.01;100.00;96677.53;5093396;28;20199;-78
2021/09/27 00:44:16;;;;;;;6.13;5.13;;;;;;;16.23;100.00;96674.97;5093207;28;20198;-79
2021/09/27 00:46:43;;;;;;;5.83;4.63;;;;;;;16.02;100.00;96671.22;5092990;28;20202;-78
2021/09/27 00:49:11;;;;;;;4.43;4.07;;;;;;;16.04;100.00;96679.81;5092903;28;20202;-78
2021/09/27 00:51:42;;;;;;;5.30;4.90;;;;;;;15.97;100.00;96676.25;5093336;28;20603;-78
2021/09/27 00:54:14;;;;;;;5.33;4.90;;;;;;;16.08;100.00;96674.97;5092830;28;20184;-78
2021/09/27 00:56:45;;;;;;;4.90;4.50;;;;;;;16.01;100.00;96676.72;5092863;28;20675;-79
2021/09/27 00:59:14;;;;;;;8.33;5.00;;;;;;;15.93;100.00;96677.59;5092521;28;20182;-78
2021/09/27 01:01:41;;;;;;;5.03;4.57;;;;;;;15.91;100.00;96675.13;5092941;28;20193;-79
2021/09/27 01:04:09;;;;;;;5.10;4.70;;;;;;;15.38;100.00;96668.19;5092383;28;20293;-78
2021/09/27 01:07:01;;;;;;;4.90;4.23;;;;;;;15.39;100.00;96660.03;5092694;28;20195;-78
2021/09/27 01:09:38;;;;;;;5.97;4.37;;;;;;;15.55;100.00;96652.94;5092635;28;20665;-78
2021/09/27 01:12:40;;;;;;;4.60;4.20;;;;;;;15.73;100.00;96661.44;5092666;28;20182;-78
2021/09/27 01:15:20;;;;;;;5.13;4.73;;;;;;;16.01;100.00;96668.75;5077362;28;20216;-78
2021/09/27 01:17:59;;;;;;;4.97;4.57;;;;;;;15.83;100.00;96669.09;5092474;28;20562;-78
2021/09/27 01:20:50;;;;;;;6.43;4.50;;;;;;;15.57;100.00;96658.91;5092594;28;20186;-78
2021/09/27 01:23:51;;;;;;;5.07;4.60;;;;;;;15.73;100.00;96656.13;5092653;28;20185;-79
2021/09/27 01:26:49;;;;;;;5.13;4.33;;;;;;;15.84;100.00;96660.16;5092173;28;20278;-79
2021/09/27 01:29:42;;;;;;;5.63;5.13;;;;;;;15.77;100.00;96661.88;5059115;28;20207;-78
2021/09/27 01:32:31;;;;;;;5.40;5.00;;;;;;;15.74;100.00;96662.25;5092344;28;20181;-78
2021/09/27 01:35:23;;;;;;;5.03;4.57;;;;;;;15.50;100.00;96664.09;5092385;28;20173;-78
2021/09/27 01:38:03;;;;;;;5.60;4.97;;;;;;;15.51;100.00;96663.06;5092043;28;20281;-78
2021/09/27 01:40:39;;;;;;;5.33;4.67;;;;;;;15.55;100.00;96658.25;5092540;28;20235;-78
2021/09/27 01:43:14;;;;;;;6.30;4.90;;;;;;;15.57;100.00;96657.06;5092075;28;20564;-78
2021/09/27 01:45:51;;;;;;;4.93;4.53;;;;;;;15.30;100.00;96652.34;5092211;28;20196;-78
2021/09/27 01:48:26;;;;;;;7.10;5.27;;;;;;;15.35;100.00;96652.66;5092355;28;20574;-78
2021/09/27 01:50:59;;;;;;;5.77;5.20;;;;;;;15.30;100.00;96653.16;5092051;28;20686;-78
2021/09/27 01:53:30;;;;;;;5.67;4.83;;;;;;;15.26;100.00;96649.22;5091816;28;20193;-79
2021/09/27 01:56:05;;;;;;;4.70;4.30;;;;;;;15.37;100.00;96658.56;5091780;28;20328;-78
2021/09/27 01:58:44;;;;;;;4.67;4.37;;;;;;;15.39;100.00;96660.03;5092520;28;20193;-78
2021/09/27 02:01:20;;;;;;;5.03;4.63;;;;;;;15.50;100.00;96671.22;5092300;28;20180;-78
2021/09/27 02:03:54;;;;;;;5.13;4.73;;;;;;;15.44;100.00;96660.31;5091592;28;20190;-78
2021/09/27 02:06:28;;;;;;;5.90;5.37;;;;;;;15.48;100.00;96658.13;5092240;28;20185;-78
2021/09/27 02:09:03;;;;;;;5.87;5.23;;;;;;;15.39;100.00;96664.53;5091777;28;20278;-79
2021/09/27 02:11:33;;;;;;;5.57;4.73;;;;;;;15.01;100.00;96658.38;5091782;28;20284;-78
2021/09/27 02:14:13;;;;;;;5.87;5.33;;;;;;;14.76;100.00;96647.16;5091612;28;20546;-78
2021/09/27 02:16:52;;;;;;;5.17;4.70;;;;;;;14.62;100.00;96654.00;5093821;28;20181;-78
2021/09/27 02:19:30;;;;;;;4.67;4.27;;;;;;;14.65;100.00;96653.63;5095864;28;20193;-78
2021/09/27 02:22:06;;;;;;;5.63;5.10;;;;;;;14.81;100.00;96648.25;5095802;28;20192;-78
2021/09/27 02:24:39;;;;;;;7.47;4.90;;;;;;;14.87;100.00;96654.66;5095958;28;20186;-78
2021/09/27 02:27:07;;;;;;;6.47;4.70;;;;;;;14.94;100.00;96660.91;5095850;28;20196;-78
2021/09/27 02:29:35;;;;;;;5.13;4.73;;;;;;;14.96;100.00;96654.44;5095887;28;20208;-78
2021/09/27 02:32:09;;;;;;;4.97;4.47;;;;;;;15.04;100.00;96652.72;5095592;28;20232;-78
2021/09/27 02:34:48;;;;;;;5.17;4.77;;;;;;;14.74;100.00;96660.53;5095665;28;20568;-78
2021/09/27 02:37:24;;;;;;;4.83;4.43;;;;;;;14.56;100.00;96654.69;5095643;28;20187;-78
2021/09/27 02:39:58;;;;;;;6.00;5.07;;;;;;;14.69;100.00;96649.66;5095962;28;20192;-79
2021/09/27 02:42:32;;;;;;;4.93;4.53;;;;;;;15.10;100.00;96644.91;5095771;28;20186;-78
2021/09/27 02:45:00;;;;;;;6.83;4.93;;;;;;;15.03;100.00;96651.06;5095386;28;20192;-78
2021/09/27 02:47:36;;;;;;;6.93;5.53;;;;;;;15.14;100.00;96648.03;5095372;28;20232;-78
2021/09/27 02:50:10;;;;;;;6.23;5.23;;;;;;;15.13;100.00;96649.81;5095434;28;20196;-78
2021/09/27 02:52:37;;;;;;;5.40;4.53;;;;;;;15.11;100.00;96645.72;5095029;28;20279;-78
2021/09/27 02:55:10;;;;;;;5.50;5.00;;;;;;;15.20;100.00;96652.59;5095659;28;20197;-78
2021/09/27 02:58:07;;;;;;;6.40;4.60;;;;;;;15.23;100.00;96646.94;5095041;28;20312;-78
2021/09/27 03:00:47;;;;;;;5.17;4.40;;;;;;;15.13;100.00;96644.53;5095180;28;20189;-78
2021/09/27 03:03:23;;;;;;;5.53;5.03;;;;;;;15.08;100.00;96643.44;5095142;28;20197;-78
2021/09/27 03:06:06;;;;;;;6.10;5.20;;;;;;;15.15;100.00;96644.38;5095212;28;20276;-79
2021/09/27 03:08:46;;;;;;;6.00;5.50;;;;;;;15.21;100.00;96652.44;5084284;28;20207;-79
2021/09/27 03:11:46;;;;;;;7.20;5.67;;;;;;;14.87;100.00;96639.59;5081885;28;20588;-78
2021/09/27 03:14:30;;;;;;;5.40;4.97;;;;;;;14.99;100.00;96638.19;5062214;28;20205;-78
2021/09/27 03:17:08;;;;;;;6.13;5.53;;;;;;;14.72;100.00;96631.63;5090399;28;20207;-78
2021/09/27 03:19:59;;;;;;;4.90;4.40;;;;;;;14.84;100.00;96634.66;5094758;28;20192;-79
2021/09/27 03:22:34;;;;;;;6.60;5.30;;;;;;;14.76;100.00;96647.16;5092137;28;20277;-78
2021/09/27 03:25:13;;;;;;;4.83;4.43;;;;;;;14.69;100.00;96637.25;5074580;28;20574;-78
2021/09/27 03:27:51;;;;;;;6.10;5.60;;;;;;;14.73;100.00;96643.03;5074144;28;20648;-78
2021/09/27 03:30:23;;;;;;;6.20;4.67;;;;;;;14.56;100.00;96642.28;5074070;28;20189;-78
2021/09/27 03:32:58;;;;;;;6.10;5.20;;;;;;;14.50;100.00;96641.16;5083346;28;20224;-78
2021/09/27 03:35:34;;;;;;;5.97;5.40;;;;;;;14.31;100.00;96638.09;5094789;28;20639;-78
2021/09/27 03:38:08;;;;;;;5.47;4.97;;;;;;;14.47;100.00;96632.72;5094317;28;20682;-79
2021/09/27 03:40:58;;;;;;;4.77;4.37;;;;;;;14.69;100.00;96647.84;5094225;28;20270;-78
2021/09/27 03:43:34;;;;;;;5.17;4.77;;;;;;;14.76;100.00;96642.66;5093536;28;20556;-78
2021/09/27 03:46:12;;;;;;;5.80;5.03;;;;;;;14.69;100.00;96649.66;5093221;28;20568;-78
2021/09/27 03:48:45;;;;;;;4.77;4.23;;;;;;;14.78;100.00;96651.25;5092822;28;20185;-79
2021/09/27 03:51:20;;;;;;;5.43;4.57;;;;;;;14.57;100.00;96649.22;5093409;28;20197;-79
2021/09/27 03:53:52;;;;;;;5.90;4.60;;;;;;;14.74;100.00;96647.31;5091896;28;20207;-78
2021/09/27 03:56:25;;;;;;;6.13;5.50;;;;;;;14.63;100.00;96645.88;5081785;28;20314;-79
2021/09/27 03:58:59;;;;;;;9.40;5.10;;;;;;;14.45;100.00;96646.13;5085590;28;20223;-79
2021/09/27 04:01:39;;;;;;;5.63;5.03;;;;;;;14.37;100.00;96648.78;5093093;28;20185;-80
2021/09/27 04:04:19;;;;;;;5.60;5.10;;;;;;;14.35;100.00;96645.50;5092407;28;20685;-79
2021/09/27 04:06:57;;;;;;;5.30;4.90;;;;;;;14.42;100.00;96640.34;5092598;28;20189;-78
2021/09/27 04:09:36;;;;;;;5.73;5.03;;;;;;;14.32;100.00;96635.28;5092854;28;20676;-79
2021/09/27 04:12:13;;;;;;;6.20;5.60;;;;;;;14.28;100.00;96637.44;5092655;28;20204;-79
2021/09/27 04:14:53;;;;;;;6.07;5.07;;;;;;;14.45;100.00;96637.38;5093068;28;20192;-79
2021/09/27 04:17:33;;;;;;;5.30;4.90;;;;;;;14.37;100.00;96632.91;5092733;28;20188;-81
2021/09/27 04:20:08;;;;;;;8.60;6.33;;;;;;;14.44;100.00;96631.25;5075146;28;20585;-75
2021/09/27 04:22:39;;;;;;;5.70;5.20;;;;;;;14.38;100.00;96633.78;5072282;28;20193;-76
2021/09/27 04:25:18;;;;;;;6.80;4.87;;;;;;;14.41;100.00;96636.91;5071715;28;20181;-75
2021/09/27 04:28:14;;;;;;;5.30;4.80;;;;;;;14.28;100.00;96626.03;5072216;28;20276;-75
2021/09/27 04:31:03;;;;;;;5.47;4.97;;;;;;;14.22;100.00;96632.84;5072665;28;20191;-75
2021/09/27 04:33:50;;;;;;;5.23;4.83;;;;;;;14.22;100.00;96634.66;5073082;28;20662;-75
2021/09/27 04:36:20;;;;;;;5.63;5.17;;;;;;;14.29;100.00;96638.25;5073121;28;20186;-75
2021/09/27 04:38:49;;;;;;;7.70;5.03;;;;;;;14.41;100.00;96644.81;5072486;28;20220;-75
2021/09/27 04:41:52;;;;;;;5.67;4.73;;;;;;;14.49;100.00;96647.41;5073573;28;20197;-75
2021/09/27 04:44:35;;;;;;;6.17;5.20;;;;;;;14.62;100.00;96652.19;5072837;28;20292;-75
2021/09/27 04:47:09;;;;;;;8.70;5.53;;;;;;;14.51;100.00;96649.91;5090581;28;20250;-75
2021/09/27 04:49:51;;;;;;;4.87;4.47;;;;;;;14.41;100.00;96646.63;5093337;28;20224;-75
2021/09/27 04:52:31;;;;;;;5.83;5.33;;;;;;;14.32;100.00;96648.50;5093307;28;20212;-75
2021/09/27 04:55:09;;;;;;;5.73;5.20;;;;;;;14.48;100.00;96650.25;5093406;28;20620;-75
2021/09/27 04:57:51;;;;;;;6.77;5.40;;;;;;;14.45;100.00;96655.88;5076293;28;20229;-75
2021/09/27 05:00:28;;;;;;;6.73;5.10;;;;;;;14.53;100.00;96650.56;5074542;28;20187;-75
2021/09/27 05:03:49;;;;;;;5.57;5.07;;;;;;;14.71;100.00;96650.28;5092625;28;20191;-75
2021/09/27 05:06:42;;;;;;;5.90;4.97;;;;;;;14.65;100.00;96661.56;4991720;28;20216;-75
2021/09/27 05:09:23;;;;;;;6.87;5.13;;;;;;;14.57;100.00;96669.56;4991193;28;20197;-75
2021/09/27 05:12:12;;;;;;;6.37;5.77;;;;;;;14.58;100.00;96666.75;5074557;28;20263;-75
2021/09/27 05:15:19;;;;;;;8.97;6.07;;;;;;;14.41;100.00;96671.28;5092334;28;20661;-75
2021/09/27 05:18:29;;;;;;;11.57;6.33;;;;;;;14.58;100.00;96664.13;5092532;28;20189;-75
2021/09/27 05:21:22;;;;;;;5.00;4.60;;;;;;;14.45;100.00;96656.69;5010674;28;20207;-75
2021/09/27 05:24:00;;;;;;;6.20;5.60;;;;;;;14.45;100.00;96655.88;5092265;28;20664;-75
2021/09/27 05:26:49;;;;;;;8.57;6.90;;;;;;;14.70;100.00;96648.66;5092865;28;20272;-76
2021/09/27 05:29:28;;;;;;;7.43;6.40;;;;;;;14.79;100.00;96655.56;5072046;28;20566;-75
2021/09/27 05:32:21;;;;;;;7.57;5.67;;;;;;;14.79;100.00;96655.56;5072536;28;20266;-75
2021/09/27 05:35:05;;;;;;;7.10;5.53;;;;;;;14.84;100.00;96652.38;5071851;28;20192;-75
2021/09/27 05:37:47;;;;;;;6.57;5.63;;;;;;;14.89;100.00;96650.00;5072276;28;20177;-75
2021/09/27 05:40:30;;;;;;;8.17;5.80;;;;;;;15.14;100.00;96656.78;5072373;28;20189;-75
2021/09/27 05:43:10;;;;;;;6.20;5.60;;;;;;;15.16;100.00;96653.94;5071899;28;20182;-75
2021/09/27 05:45:50;;;;;;;6.27;5.20;;;;;;;15.35;100.00;96661.41;5082248;28;20196;-75
2021/09/27 05:48:29;;;;;;;6.43;5.40;;;;;;;15.29;100.00;96659.47;5092101;28;20197;-76
2021/09/27 05:51:04;;;;;;;6.10;5.60;;;;;;;15.21;100.00;96663.03;5091355;28;20671;-75
2021/09/27 05:53:42;;;;;;;7.77;5.80;;;;;;;15.25;100.00;96657.38;5091719;28;20181;-75
2021/09/27 05:56:16;;;;;;;12.83;8.37;;;;;;;15.32;100.00;96655.66;5092133;28;20258;-76
2021/09/27 05:58:51;;;;;;;7.27;6.47;;;;;;;15.55;100.00;96664.38;5091880;28;20547;-76
2021/09/27 06:01:29;;;;;;;7.37;6.27;;;;;;;15.60;100.00;96669.97;5091876;28;20187;-76
2021/09/27 06:04:10;;;;;;;9.07;6.50;;;;;;;15.74;100.00;96678.97;5091812;28;20190;-76
2021/09/27 06:06:42;;;;;;;16.90;7.17;;;;;;;15.95;100.00;96672.13;5091950;28;20188;-76
2021/09/27 06:09:39;;;;;;;19.97;6.70;;;;;;;16.01;100.00;96663.47;5091485;28;20200;-76
2021/09/27 06:12:21;;;;;;;21.50;7.77;;;;;;;16.15;100.00;96668.75;5092182;28;20217;-75
2021/09/27 06:14:51;;;;;;;21.87;7.00;;;;;;;16.14;100.00;96659.16;5092165;28;20573;-76
2021/09/27 06:17:31;;;;;;;23.50;6.37;;;;;;;16.35;100.00;96663.72;5092045;28;20194;-76
2021/09/27 06:20:08;;;;;;;17.90;6.13;;;;;;;16.46;100.00;96661.59;5091939;28;20186;-76
2021/09/27 06:22:58;;;;;;;22.57;6.50;;;;;;;16.77;100.00;96664.03;5091966;28;20242;-76
2021/09/27 06:25:34;;;;;;;16.40;6.23;;;;;;;17.04;100.00;96676.56;5092060;28;20190;-76
2021/09/27 06:28:11;;;;;;;10.37;5.50;;;;;;;17.23;100.00;96672.44;5091714;28;20223;-76
2021/09/27 06:30:44;;;;;;;10.23;5.70;;;;;;;17.44;100.00;96676.09;5090814;28;20191;-76
2021/09/27 06:33:18;;;;;;;14.80;7.23;;;;;;;17.66;100.00;96680.34;5089858;28;20203;-76
2021/09/27 06:35:49;;;;;;;9.80;5.33;;;;;;;17.60;100.00;96686.47;5086249;28;20647;-76
2021/09/27 06:38:19;;;;;;;11.43;6.37;;;;;;;17.68;100.00;96682.84;5071670;28;20189;-76
2021/09/27 06:40:51;;;;;;;7.30;5.03;;;;;;;17.80;100.00;96681.31;5071169;28;20189;-76
2021/09/27 06:43:23;;;;;;;7.67;5.47;;;;;;;17.87;100.00;96676.03;5071277;28;20177;-76
2021/09/27 06:45:50;;;;;;;6.67;5.37;;;;;;;18.15;100.00;96689.31;5071415;28;20639;-76
2021/09/27 06:48:19;;;;;;;6.50;5.07;;;;;;;18.32;100.00;96692.47;5070993;28;20204;-76
2021/09/27 06:50:49;;;;;;;7.33;5.27;;;;;;;18.45;100.00;96700.53;5071645;28;20208;-76
2021/09/27 06:53:16;;;;;;;13.30;5.10;;;;;;;18.73;100.00;96697.81;5071409;28;20230;-76
2021/09/27 06:55:43;;;;;;;11.30;5.07;;;;;;;18.84;100.00;96702.56;5071155;28;20701;-76
2021/09/27 06:58:10;;;;;;;9.40;4.90;;;;;;;18.74;100.00;96705.63;5070887;28;20198;-76
2021/09/27 07:00:38;;;;;;;4.93;4.30;;;;;;;19.11;100.00;96708.78;5071519;28;20580;-76
2021/09/27 07:03:06;;;;;;;9.33;4.67;;;;;;;19.32;100.00;96717.63;5073494;28;20686;-76
2021/09/27 07:05:33;;;;;;;5.07;4.57;;;;;;;19.24;100.00;96722.13;5075210;28;20193;-76
2021/09/27 07:08:02;;;;;;;7.87;5.00;;;;;;;19.76;100.00;96719.75;5074810;28;20201;-76
2021/09/27 07:10:29;;;;;;;8.67;4.30;;;;;;;20.01;100.00;96733.28;5075129;28;20197;-76
2021/09/27 07:12:57;;;;;;;12.17;4.20;;;;;;;20.03;100.00;96736.59;5074871;28;20311;-76
2021/09/27 07:15:24;;;;;;;5.40;4.60;;;;;;;20.14;100.00;96749.28;5075238;28;20208;-76
2021/09/27 07:17:51;;;;;;;4.60;3.87;;;;;;;20.17;100.00;96743.53;5074661;28;20208;-77
2021/09/27 07:20:21;;;;;;;4.53;3.40;;;;;;;20.05;100.00;96755.84;5074892;28;20197;-77
2021/09/27 07:22:49;;;;;;;9.80;4.07;;;;;;;20.39;100.00;96756.63;5074565;28;20189;-77
2021/09/27 07:25:18;;;;;;;4.37;3.40;;;;;;;20.64;100.00;96763.00;5074612;28;20219;-77
2021/09/27 07:27:47;;;;;;;4.63;3.83;;;;;;;20.87;100.00;96754.47;5074301;28;20197;-77
2021/09/27 07:30:15;;;;;;;4.83;3.97;;;;;;;20.80;100.00;96758.22;5074846;28;20198;-77
2021/09/27 07:32:43;;;;;;;6.97;4.23;;;;;;;20.83;100.00;96741.75;5074455;28;20225;-77
2021/09/27 07:35:12;;;;;;;3.97;3.10;;;;;;;20.89;100.00;96743.59;5074488;28;20670;-77
2021/09/27 07:37:40;;;;;;;4.43;4.00;;;;;;;21.27;100.00;96754.31;5074187;28;20252;-77
2021/09/27 07:40:11;;;;;;;5.40;3.73;;;;;;;21.51;100.00;96759.94;5074360;28;20692;-78
2021/09/27 07:42:41;;;;;;;6.87;4.30;;;;;;;21.51;100.00;96775.97;5074107;28;20186;-77
2021/09/27 07:45:12;;;;;;;3.93;3.53;;;;;;;21.77;100.00;96777.66;5074578;28;20669;-77
2021/09/27 07:47:39;;;;;;;4.40;4.10;;;;;;;22.00;100.00;96791.28;5073758;28;20178;-78
2021/09/27 07:50:08;;;;;;;7.93;3.57;;;;;;;21.98;100.00;96790.69;5074073;28;20197;-77
2021/09/27 07:52:35;;;;;;;8.17;4.47;;;;;;;22.13;100.00;96787.66;5073850;28;20221;-79
2021/09/27 07:55:05;;;;;;;4.67;3.70;;;;;;;22.15;100.00;96796.34;5074078;28;20204;-77
2021/09/27 07:57:32;;;;;;;4.13;3.73;;;;;;;22.11;100.00;96796.97;5073433;28;20236;-77
2021/09/27 08:00:01;;;;;;;4.20;3.37;;;;;;;22.45;100.00;96801.84;5073958;28;20193;-77
2021/09/27 08:02:30;;;;;;;5.07;3.77;;;;;;;22.74;100.00;96794.94;5073827;28;20200;-77
2021/09/27 08:04:58;;;;;;;5.37;4.97;;;;;;;22.91;100.00;96794.38;5073666;28;20204;-77
2021/09/27 08:07:26;;;;;;;4.87;4.50;;;;;;;23.12;100.00;96806.53;5073853;28;20197;-77
2021/09/27 08:09:53;;;;;;;6.33;3.47;;;;;;;22.91;100.00;96808.59;5073914;28;20584;-77
2021/09/27 08:12:20;;;;;;;5.23;3.40;;;;;;;23.17;100.00;96807.50;5073758;28;20257;-77
2021/09/27 08:14:48;;;;;;;5.17;3.00;;;;;;;22.95;100.00;96819.72;5073001;28;20300;-77
2021/09/27 08:17:17;;;;;;;3.60;3.30;;;;;;;23.12;100.00;96795.81;5073253;28;20193;-77
2021/09/27 08:19:46;;;;;;;4.53;3.80;;;;;;;23.08;100.00;96791.94;5073572;28;20197;-77
2021/09/27 08:22:14;;;;;;;4.53;3.47;;;;;;;22.88;100.00;96792.13;5073761;28;20299;-77
2021/09/27 08:24:41;;;;;;;8.33;3.57;;;;;;;23.11;100.00;96792.31;5073334;28;20197;-77
2021/09/27 08:27:09;;;;;;;4.23;3.10;;;;;;;23.45;100.00;96777.44;5073356;28;20201;-77
2021/09/27 08:29:36;;;;;;;7.57;4.03;;;;;;;23.63;100.00;96799.88;5073327;28;20204;-78
2021/09/27 08:32:04;;;;;;;7.90;4.30;;;;;;;23.71;100.00;96805.75;5073602;28;20205;-77
2021/09/27 08:34:32;;;;;;;3.90;3.57;;;;;;;23.49;100.00;96800.06;5072950;28;20207;-77
2021/09/27 08:37:00;;;;;;;10.73;5.53;;;;;;;24.08;100.00;96792.19;5073543;28;20201;-77
2021/09/27 08:39:27;;;;;;;4.40;4.00;;;;;;;23.61;100.00;96801.97;5073191;28;20193;-77
2021/09/27 08:42:00;;;;;;;5.73;4.03;;;;;;;24.14;100.00;96809.22;5073522;28;20196;-78
2021/09/27 08:44:48;;;;;;;3.67;3.33;;;;;;;24.22;100.00;96811.59;5073054;28;20268;-77
2021/09/27 08:47:25;;;;;;;5.73;4.00;;;;;;;24.25;100.00;96792.34;5072966;28;20185;-78
2021/09/27 08:49:58;;;;;;;5.50;3.17;;;;;;;24.88;100.00;96806.94;5073162;28;20181;-78
2021/09/27 08:52:28;;;;;;;4.47;3.70;;;;;;;25.16;100.00;96810.78;5072814;28;20217;-77
2021/09/27 08:54:55;;;;;;;8.20;3.00;;;;;;;25.54;100.00;96815.56;5072838;28;20201;-78
2021/09/27 08:57:36;;;;;;;5.30;3.53;;;;;;;25.73;100.00;96818.88;5072504;28;20735;-77
2021/09/27 09:00:14;;;;;;;5.83;3.10;;;;;;;25.19;100.00;96813.81;5073159;28;20181;-78
2021/09/27 09:02:56;;;;;;;3.23;2.77;;;;;;;25.18;100.00;96814.84;5072733;28;20188;-78
2021/09/27 09:05:32;;;;;;;4.50;3.07;;;;;;;25.04;100.00;96818.84;5072665;28;20194;-77
2021/09/27 09:08:06;;;;;;;3.47;3.17;;;;;;;25.20;100.00;96810.06;5072597;28;20192;-77
2021/09/27 09:10:43;;;;;;;5.73;3.33;;;;;;;25.31;100.00;96805.69;5072870;28;20207;-78
2021/09/27 09:13:14;;;;;;;5.60;3.23;;;;;;;25.17;100.00;96804.34;5072109;28;20211;-78
2021/09/27 09:15:44;;;;;;;6.10;3.37;;;;;;;25.81;100.00;96805.88;5072788;28;20190;-78
2021/09/27 09:18:14;;;;;;;4.50;2.93;;;;;;;26.01;100.00;96809.97;5072597;28;20219;-78
2021/09/27 09:20:52;;;;;;;3.93;2.80;;;;;;;26.38;100.00;96812.19;5072409;28;20185;-78
2021/09/27 09:23:26;;;;;;;3.73;3.10;;;;;;;25.70;100.00;96805.88;5072242;28;20596;-78
2021/09/27 09:25:54;;;;;;;4.13;3.23;;;;;;;25.36;100.00;96797.75;5071982;28;20190;-78
2021/09/27 09:28:22;;;;;;;3.90;3.10;;;;;;;24.99;100.00;96797.22;5072108;28;20203;-78
2021/09/27 09:30:55;;;;;;;3.17;2.87;;;;;;;25.37;100.00;96788.59;5072267;28;20685;-78
2021/09/27 09:33:39;;;;;;;2.67;2.47;;;;;;;25.65;100.00;96797.72;5072047;28;20221;-78
2021/09/27 09:36:09;;;;;;;2.93;2.73;;;;;;;25.46;100.00;96799.78;5072230;28;20192;-78
2021/09/27 09:38:38;;;;;;;4.30;2.90;;;;;;;26.05;100.00;96792.28;5072033;28;20200;-78
2021/09/27 09:41:07;;;;;;;3.93;3.13;;;;;;;26.23;100.00;96797.41;5072370;28;20296;-78
2021/09/27 09:43:37;;;;;;;4.13;3.40;;;;;;;26.17;100.00;96803.78;5071813;28;20192;-78
2021/09/27 09:46:08;;;;;;;5.27;3.27;;;;;;;26.32;100.00;96801.34;5072223;28;20197;-78
2021/09/27 09:48:39;;;;;;;3.58;3.30;;;;;;;26.42;100.00;96799.84;5072098;28;20184;-78
2021/09/27 09:51:27;;;;;;;6.13;3.40;;;;;;;26.13;100.00;96799.13;5072117;28;20260;-78
2021/09/27 09:54:11;;;;;;;6.93;3.10;;;;;;;26.29;100.00;96796.44;5071477;28;20205;-78
2021/09/27 09:56:43;;;;;;;3.83;3.50;;;;;;;26.56;100.00;96795.78;5071955;28;20237;-78
2021/09/27 09:59:26;;;;;;;3.70;3.37;;;;;;;27.40;100.00;96800.97;5071724;28;20645;-78
2021/09/27 10:01:55;;;;;;;3.50;3.20;;;;;;;26.95;100.00;96804.69;5071986;28;20626;-78
2021/09/27 10:04:27;;;;;;;3.28;2.97;;;;;;;26.42;100.00;96797.16;5072006;28;20557;-78
2021/09/27 10:07:09;;;;;;;4.55;3.50;;;;;;;26.91;100.00;96797.34;5072219;28;20192;-78
2021/09/27 10:09:41;;;;;;;4.53;3.73;;;;;;;27.60;100.00;96794.94;5071711;28;20185;-79
2021/09/27 10:12:12;;;;;;;3.38;3.08;;;;;;;27.38;100.00;96803.09;5072139;28;20188;-79
2021/09/27 10:14:43;;;;;;;3.83;3.28;;;;;;;26.98;100.00;96788.03;5071843;28;20210;-78
2021/09/27 10:17:27;;;;;;;4.95;3.75;;;;;;;26.87;100.00;96785.41;5071670;28;20189;-78
2021/09/27 10:19:59;;;;;;;4.63;3.42;;;;;;;27.52;100.00;96781.09;5071788;28;20192;-78
2021/09/27 10:22:30;;;;;;;6.60;3.50;;;;;;;27.00;100.00;96787.75;5071637;28;20193;-78
2021/09/27 10:24:59;;;;;;;5.38;3.10;;;;;;;26.78;100.00;96783.16;5071703;28;20662;-79
2021/09/27 10:27:31;;;;;;;8.27;3.55;;;;;;;26.48;100.00;96783.53;5071496;28;20197;-79
2021/09/27 10:30:02;;;;;;;4.85;3.20;;;;;;;27.34;100.00;96783.06;5071777;28;20185;-79
2021/09/27 10:32:37;;;;;;;3.67;3.38;;;;;;;26.86;100.00;96768.44;5071729;28;20185;-78
2021/09/27 10:35:11;;;;;;;11.75;3.65;;;;;;;26.87;100.00;96772.75;5071607;28;20192;-78
2021/09/27 10:37:41;;;;;;;4.22;3.88;;;;;;;27.10;100.00;96769.00;5073372;28;20771;-79
2021/09/27 10:40:14;;;;;;;6.65;3.40;;;;;;;27.73;100.00;96766.72;5075803;28;20197;-79
2021/09/27 10:42:46;;;;;;;3.58;3.28;;;;;;;28.11;100.00;96759.53;5075277;28;20192;-79
2021/09/27 10:45:16;;;;;;;5.55;3.85;;;;;;;28.39;100.00;96753.00;5075657;28;20541;-79
2021/09/27 10:47:47;;;;;;;3.35;3.05;;;;;;;27.44;100.00;96755.38;5075291;28;20190;-79
2021/09/27 10:50:19;;;;;;;4.57;3.72;;;;;;;27.76;100.00;96749.25;5075290;28;20312;-78
2021/09/27 10:53:01;;;;;;;5.38;3.92;;;;;;;28.19;100.00;96746.34;5075509;28;20273;-79
2021/09/27 10:55:45;;;;;;;3.30;3.10;;;;;;;27.80;100.00;96740.34;5075024;28;20195;-79
2021/09/27 10:58:25;;;;;;;8.07;3.85;;;;;;;26.95;100.00;96750.75;5075010;28;20642;-79
2021/09/27 11:00:55;;;;;;;3.53;3.22;;;;;;;27.34;100.00;96747.97;5074917;28;20254;-79
2021/09/27 11:03:27;;;;;;;7.25;3.47;;;;;;;27.29;100.00;96737.13;5074888;28;20182;-80
2021/09/27 11:05:59;;;;;;;5.15;3.80;;;;;;;27.39;100.00;96737.22;5075317;28;20181;-79
2021/09/27 11:08:52;;;;;;;8.18;3.63;;;;;;;27.06;100.00;96737.38;5075057;28;20201;-79
2021/09/27 11:11:38;;;;;;;7.95;3.58;;;;;;;26.75;100.00;96734.31;5074906;28;20208;-79
2021/09/27 11:14:27;;;;;;;6.93;3.58;;;;;;;27.24;100.00;96737.88;5074455;28;20205;-79
2021/09/27 11:17:09;;;;;;;3.55;3.25;;;;;;;27.77;100.00;96718.44;5074863;28;20236;-79
2021/09/27 11:19:40;;;;;;;3.60;3.25;;;;;;;27.79;100.00;96717.13;5074690;28;20192;-79
2021/09/27 11:22:36;;;;;;;4.47;3.20;;;;;;;27.46;100.00;96718.13;5074777;28;20186;-79
2021/09/27 11:25:11;;;;;;;5.82;3.65;;;;;;;27.46;100.00;96710.84;5074679;28;20664;-79
2021/09/27 11:27:40;;;;;;;4.50;2.97;;;;;;;27.13;100.00;96714.56;5074526;28;20199;-79
2021/09/27 11:30:39;;;;;;;5.57;3.38;;;;;;;27.32;100.00;96716.91;5074451;28;20201;-79
2021/09/27 11:33:19;;;;;;;3.85;3.50;;;;;;;27.16;100.00;96711.38;5074787;28;20190;-79
2021/09/27 11:35:47;;;;;;;4.25;3.70;;;;;;;27.12;100.00;96712.06;5074522;28;20568;-79
2021/09/27 11:38:35;;;;;;;4.35;3.95;;;;;;;26.89;100.00;96707.78;5074553;28;20193;-79
2021/09/27 11:41:33;;;;;;;3.55;3.00;;;;;;;26.90;100.00;96701.31;5074369;28;20189;-79
2021/09/27 11:44:07;;;;;;;4.40;3.72;;;;;;;26.73;100.00;96694.09;5073843;28;20292;-79
2021/09/27 11:46:48;;;;;;;4.13;3.17;;;;;;;27.08;100.00;96695.59;5074564;28;20216;-79
2021/09/27 11:49:30;;;;;;;3.78;3.38;;;;;;;26.89;100.00;96691.59;5072864;28;20191;-79
2021/09/27 11:52:12;;;;;;;4.53;3.33;;;;;;;26.88;100.00;96695.34;5074297;28;20250;-79
2021/09/27 11:54:51;;;;;;;3.40;3.10;;;;;;;26.98;100.00;96688.22;5074296;28;20212;-79
2021/09/27 11:57:28;;;;;;;5.40;3.45;;;;;;;27.15;100.00;96677.34;5073851;28;20229;-79
2021/09/27 12:00:03;;;;;;;4.00;3.03;;;;;;;27.45;100.00;96673.31;5074342;28;20187;-79
2021/09/27 12:02:36;;;;;;;6.22;3.70;;;;;;;27.49;100.00;96667.16;5073889;28;20216;-79
2021/09/27 12:05:24;;;;;;;3.42;3.13;;;;;;;27.05;100.00;96663.72;5074270;28;20196;-79